Time;durP1;ratioP1;P1;durP2;ratioP2;P2;SDS_P1;SDS_P2;PMS_P1;PMS_P2;Temp;Humidity;BMP_temperature;BMP_pressure;BME280_temperature;BME280_humidity;BME280_pressure;Samples;Min_cycle;Max_cycle;Signal;HPM_P1;HPM_P2
2023/06/21 00:00:18;;;;;;;4.85;3.55;;;;;;;22.44;100.00;98094.03;15270655;19;20018;-46
2023/06/21 00:12:12;;;;;;;3.38;2.72;;;;;;;22.08;100.00;98076.88;15270154;19;20006;-49
2023/06/21 00:17:36;;;;;;;3.00;2.40;;;;;;;22.03;100.00;98041.94;15262558;19;20058;-48
2023/06/21 00:23:02;;;;;;;3.13;2.50;;;;;;;22.01;100.00;98033.13;15261404;19;20018;-45
2023/06/21 00:28:30;;;;;;;3.78;2.50;;;;;;;21.93;100.00;98036.25;15266353;19;20664;-47
2023/06/21 00:34:01;;;;;;;2.75;2.10;;;;;;;21.73;100.00;98043.00;15264765;19;20424;-45
2023/06/21 00:39:26;;;;;;;3.05;2.20;;;;;;;21.50;100.00;98052.91;15266304;19;20020;-45
2023/06/21 00:44:53;;;;;;;3.38;2.08;;;;;;;21.30;100.00;98056.03;15263172;19;20018;-49
2023/06/21 00:50:18;;;;;;;2.75;2.05;;;;;;;21.15;100.00;98064.75;15261450;19;21001;-47
2023/06/21 00:55:51;;;;;;;5.20;2.30;;;;;;;21.00;100.00;98072.59;15255699;19;20018;-46
2023/06/21 01:01:18;;;;;;;4.10;2.60;;;;;;;20.87;100.00;98090.97;15264471;19;20014;-46
2023/06/21 01:07:03;;;;;;;4.13;2.50;;;;;;;20.74;100.00;98102.94;15264813;19;20014;-47
2023/06/21 01:12:40;;;;;;;4.53;2.70;;;;;;;20.66;100.00;98122.44;15264021;19;20018;-44
2023/06/21 01:18:11;;;;;;;5.25;2.42;;;;;;;20.58;100.00;98137.28;15261351;19;20014;-46
2023/06/21 01:23:50;;;;;;;2.67;2.25;;;;;;;20.51;100.00;98142.03;15258966;19;20860;-46
2023/06/21 01:29:21;;;;;;;2.88;2.30;;;;;;;20.45;100.00;98143.78;15254764;19;20033;-47
2023/06/21 01:34:53;;;;;;;4.28;2.15;;;;;;;20.42;100.00;98137.91;15259227;19;20821;-55
2023/06/21 01:40:19;;;;;;;6.70;2.60;;;;;;;20.40;100.00;98140.09;15262552;19;20855;-54
2023/06/21 01:45:49;;;;;;;6.30;2.17;;;;;;;20.32;100.00;98125.63;15256246;19;20564;-50
2023/06/21 01:51:18;;;;;;;4.25;2.10;;;;;;;20.25;100.00;98122.19;15262510;19;20373;-53
2023/06/21 01:56:45;;;;;;;5.10;2.13;;;;;;;20.22;100.00;98122.63;15252677;19;20018;-54
2023/06/21 02:02:14;;;;;;;5.57;2.05;;;;;;;20.16;100.00;98112.63;15250946;19;20387;-51
2023/06/21 02:07:39;;;;;;;4.13;1.90;;;;;;;20.12;100.00;98116.88;15260652;19;20018;-53
2023/06/21 02:13:04;;;;;;;3.03;2.00;;;;;;;20.09;100.00;98120.06;15259250;19;20013;-48
2023/06/21 02:18:34;;;;;;;4.05;2.50;;;;;;;20.04;100.00;98136.34;15256326;19;20011;-52
2023/06/21 02:24:00;;;;;;;4.72;2.67;;;;;;;19.99;100.00;98146.06;15259726;19;20019;-56
2023/06/21 02:29:24;;;;;;;4.47;2.25;;;;;;;19.96;100.00;98151.16;15253284;19;20491;-51
2023/06/21 02:34:59;;;;;;;3.88;2.70;;;;;;;19.96;100.00;98159.38;15250059;19;20021;-52
2023/06/21 02:40:24;;;;;;;4.45;2.50;;;;;;;19.92;100.00;98153.53;15260633;19;20023;-53
2023/06/21 02:45:48;;;;;;;3.47;2.28;;;;;;;19.89;100.00;98162.19;15252720;19;20019;-55
2023/06/21 02:51:20;;;;;;;4.43;2.50;;;;;;;19.89;100.00;98184.06;15258033;19;20021;-49
2023/06/21 02:56:48;;;;;;;3.90;2.40;;;;;;;19.81;100.00;98193.34;15256016;19;20026;-46
2023/06/21 03:02:13;;;;;;;3.95;2.42;;;;;;;19.80;100.00;98191.69;15253487;19;20014;-47
2023/06/21 03:07:43;;;;;;;3.58;2.33;;;;;;;19.75;100.00;98198.88;15258241;19;20098;-46
2023/06/21 03:13:09;;;;;;;4.32;2.22;;;;;;;19.71;100.00;98193.88;15273782;19;20567;-48
2023/06/21 03:18:34;;;;;;;4.50;2.28;;;;;;;19.73;100.00;98203.75;15270686;19;20019;-47
2023/06/21 03:24:01;;;;;;;10.50;2.70;;;;;;;19.70;100.00;98207.78;15276901;19;20023;-48
2023/06/21 03:29:28;;;;;;;3.20;2.20;;;;;;;19.70;100.00;98222.25;15274146;19;20031;-50
2023/06/21 03:35:01;;;;;;;2.60;2.10;;;;;;;19.71;100.00;98237.59;15265812;19;20017;-45
2023/06/21 03:40:29;;;;;;;4.18;2.20;;;;;;;19.73;100.00;98231.91;15269146;19;20696;-51
2023/06/21 03:45:54;;;;;;;3.85;2.10;;;;;;;19.76;100.00;98225.16;15269521;19;20042;-48
2023/06/21 03:51:20;;;;;;;2.60;2.00;;;;;;;19.75;100.00;98231.69;15273791;19;20034;-47
2023/06/21 03:56:48;;;;;;;3.70;2.22;;;;;;;19.76;100.00;98225.16;15269917;19;21032;-44
2023/06/21 04:02:13;;;;;;;5.10;2.30;;;;;;;19.78;100.00;98239.44;15272548;19;20018;-44
2023/06/21 04:07:39;;;;;;;4.78;2.25;;;;;;;19.79;100.00;98247.41;15265484;19;20010;-47
2023/06/21 04:13:07;;;;;;;5.63;2.30;;;;;;;19.82;100.00;98254.31;15270883;19;20502;-46
2023/06/21 04:18:32;;;;;;;3.47;2.10;;;;;;;19.83;100.00;98270.50;15266277;19;20029;-49
2023/06/21 04:23:57;;;;;;;4.28;2.10;;;;;;;19.87;100.00;98270.91;15268529;19;20019;-48
2023/06/21 04:29:24;;;;;;;4.38;2.25;;;;;;;19.90;100.00;98277.81;15269638;19;20018;-49
2023/06/21 04:34:55;;;;;;;4.25;2.30;;;;;;;19.95;100.00;98283.47;15266855;19;20029;-46
2023/06/21 04:40:21;;;;;;;5.30;2.40;;;;;;;19.99;100.00;98282.78;15256391;19;20021;-48
2023/06/21 04:45:50;;;;;;;4.30;2.22;;;;;;;20.07;100.00;98283.53;15267330;19;20025;-49
2023/06/21 04:51:16;;;;;;;5.68;2.15;;;;;;;20.16;100.00;98290.41;15271883;19;20468;-49
2023/06/21 04:56:42;;;;;;;5.22;2.20;;;;;;;20.26;100.00;98296.19;15267491;19;20015;-54
2023/06/21 05:02:09;;;;;;;4.03;2.22;;;;;;;20.33;100.00;98304.31;15272821;19;20367;-45
2023/06/21 05:07:37;;;;;;;4.32;2.22;;;;;;;20.45;100.00;98318.91;15268735;19;20013;-49
2023/06/21 05:13:02;;;;;;;5.55;2.17;;;;;;;20.57;100.00;98327.19;15256721;19;20017;-47
2023/06/21 05:18:30;;;;;;;5.15;2.00;;;;;;;20.69;100.00;98323.69;15265069;19;20017;-46
2023/06/21 05:23:55;;;;;;;6.30;2.10;;;;;;;20.76;100.00;98325.31;15269187;19;20466;-44
2023/06/21 05:29:20;;;;;;;3.15;1.88;;;;;;;20.88;100.00;98330.81;15267476;19;20029;-51
2023/06/21 05:34:47;;;;;;;4.18;1.80;;;;;;;20.96;100.00;98339.81;15258222;19;20016;-46
2023/06/21 05:40:14;;;;;;;4.65;2.10;;;;;;;21.01;100.00;98337.19;15260940;19;20466;-46
2023/06/21 05:45:40;;;;;;;4.03;1.90;;;;;;;21.05;100.00;98335.66;15256557;19;20030;-46
2023/06/21 05:51:07;;;;;;;3.65;2.17;;;;;;;21.12;100.00;98344.63;15267001;19;20482;-46
2023/06/21 05:56:37;;;;;;;5.38;2.25;;;;;;;21.17;100.00;98339.28;15262151;19;20017;-46
2023/06/21 06:02:01;;;;;;;5.22;2.30;;;;;;;21.23;100.00;98348.47;15255636;19;20101;-48
2023/06/21 06:07:28;;;;;;;3.13;1.88;;;;;;;21.30;100.00;98357.44;15263441;19;20025;-47
2023/06/21 06:12:53;;;;;;;4.68;2.10;;;;;;;21.42;100.00;98370.34;15261516;19;20025;-46
2023/06/21 06:18:18;;;;;;;3.95;2.05;;;;;;;21.54;100.00;98369.31;15253481;19;20036;-47
2023/06/21 06:23:45;;;;;;;4.68;2.17;;;;;;;21.68;100.00;98363.66;15264146;19;20384;-47
2023/06/21 06:29:10;;;;;;;4.13;2.10;;;;;;;21.82;100.00;98378.00;15261802;19;20028;-47
2023/06/21 06:34:34;;;;;;;3.03;1.95;;;;;;;21.93;100.00;98376.34;15262721;19;20017;-46
2023/06/21 06:40:05;;;;;;;4.20;2.28;;;;;;;22.05;100.00;98382.66;15261607;19;20639;-49
2023/06/21 06:45:29;;;;;;;3.75;1.88;;;;;;;22.24;100.00;98372.41;15271467;19;22060;-46
2023/06/21 06:50:54;;;;;;;4.82;1.98;;;;;;;22.45;100.00;98378.41;15274373;19;20022;-47
2023/06/21 06:56:21;;;;;;;4.70;1.85;;;;;;;22.66;100.00;98384.34;15273387;19;20090;-46
2023/06/21 07:01:46;;;;;;;3.35;1.60;;;;;;;22.84;100.00;98386.13;15280685;19;20007;-47
2023/06/21 07:07:10;;;;;;;3.15;1.73;;;;;;;22.95;100.00;98371.50;15278469;19;20041;-45
2023/06/21 07:12:37;;;;;;;3.05;1.63;;;;;;;23.10;100.00;98370.97;15277886;19;20018;-47
2023/06/21 07:18:03;;;;;;;7.07;1.83;;;;;;;23.32;100.00;98368.44;15268533;19;20029;-46
2023/06/21 07:23:29;;;;;;;5.30;1.80;;;;;;;23.33;100.00;98361.84;15270023;19;20026;-47
2023/06/21 07:28:56;;;;;;;2.92;1.70;;;;;;;23.42;100.00;98381.50;15276706;19;20022;-46
2023/06/21 07:34:29;;;;;;;3.40;1.75;;;;;;;23.48;100.00;98371.44;15269923;19;20022;-47
2023/06/21 07:39:54;;;;;;;5.05;1.70;;;;;;;23.59;100.00;98381.53;15267770;19;20557;-45
2023/06/21 07:45:21;;;;;;;4.28;1.70;;;;;;;23.52;100.00;98375.38;15272219;19;20020;-44
2023/06/21 07:50:46;;;;;;;3.25;1.80;;;;;;;23.60;100.00;98377.72;15271636;19;20479;-48
2023/06/21 07:56:14;;;;;;;3.53;1.70;;;;;;;23.79;100.00;98392.06;14752478;19;10000744;-45
2023/06/21 08:01:42;;;;;;;3.25;1.67;;;;;;;24.04;100.00;98388.13;15270457;19;20496;-44
2023/06/21 08:07:06;;;;;;;3.10;1.40;;;;;;;24.12;100.00;98379.44;15272932;19;20010;-43
2023/06/21 08:12:31;;;;;;;2.22;1.40;;;;;;;24.25;100.00;98355.41;15275599;19;20018;-44
2023/06/21 08:17:58;;;;;;;1.67;1.30;;;;;;;24.36;100.00;98357.22;15273269;19;20010;-45
2023/06/21 08:23:23;;;;;;;1.92;1.27;;;;;;;24.43;100.00;98355.13;15267971;19;20050;-45
2023/06/21 08:28:47;;;;;;;2.00;1.30;;;;;;;24.54;100.00;98347.84;15265934;19;20037;-45
2023/06/21 08:34:22;;;;;;;2.95;1.30;;;;;;;24.58;100.00;98346.25;15269711;19;20026;-44
2023/06/21 08:39:48;;;;;;;3.03;1.58;;;;;;;24.67;100.00;98349.41;15269880;19;20017;-46
2023/06/21 08:45:13;;;;;;;3.20;1.35;;;;;;;24.80;100.00;98361.97;15271157;19;20023;-44
2023/06/21 08:50:45;;;;;;;1.50;1.40;;;;;;;24.82;100.00;98359.81;15270785;19;20090;-44
2023/06/21 08:56:12;;;;;;;2.13;1.35;;;;;;;24.98;100.00;98362.75;15264335;19;20014;-46
2023/06/21 09:01:44;;;;;;;2.22;1.50;;;;;;;24.88;100.00;98358.75;15263166;19;20352;-45
2023/06/21 09:07:12;;;;;;;4.10;1.33;;;;;;;25.09;100.00;98364.53;15268091;19;20017;-44
2023/06/21 09:12:40;;;;;;;1.80;1.25;;;;;;;25.19;100.00;98356.38;15270760;19;20014;-46
2023/06/21 09:18:08;;;;;;;2.83;1.30;;;;;;;25.32;100.00;98371.69;15267164;19;20439;-47
2023/06/21 09:23:36;;;;;;;2.72;1.10;;;;;;;25.42;100.00;98368.22;15269020;19;20355;-45
2023/06/21 09:29:00;;;;;;;3.10;1.20;;;;;;;25.60;100.00;98382.72;15261442;19;20018;-45
2023/06/21 09:34:25;;;;;;;1.80;1.20;;;;;;;25.82;100.00;98394.53;15261290;19;20032;-45
2023/06/21 09:40:03;;;;;;;3.63;1.15;;;;;;;25.92;100.00;98402.06;15266692;19;20019;-44
2023/06/21 09:45:28;;;;;;;2.88;1.30;;;;;;;26.00;100.00;98406.28;15265645;19;20007;-45
2023/06/21 09:50:53;;;;;;;4.45;1.20;;;;;;;25.66;100.00;98410.13;15267332;19;20018;-46
2023/06/21 09:56:22;;;;;;;3.55;1.10;;;;;;;25.45;100.00;98411.84;15263268;19;20025;-45
2023/06/21 10:01:48;;;;;;;1.55;1.00;;;;;;;25.67;100.00;98394.41;15261010;19;20018;-45
2023/06/21 10:07:14;;;;;;;3.90;1.10;;;;;;;25.84;100.00;98408.09;15261251;19;20019;-44
2023/06/21 10:12:43;;;;;;;2.88;1.20;;;;;;;26.10;100.00;98406.41;15266922;19;20033;-44
2023/06/21 10:18:12;;;;;;;1.55;1.08;;;;;;;26.13;100.00;98405.03;15273370;19;20478;-44
2023/06/21 10:23:38;;;;;;;2.83;1.10;;;;;;;26.04;100.00;98401.06;15280150;19;20495;-44
2023/06/21 10:29:07;;;;;;;3.90;1.17;;;;;;;26.17;100.00;98410.88;15279825;19;20082;-44
2023/06/21 10:34:34;;;;;;;2.45;1.35;;;;;;;26.28;100.00;98424.50;15267868;19;20037;-44
2023/06/21 10:40:04;;;;;;;1.90;1.13;;;;;;;26.48;100.00;98422.97;15272913;19;20011;-43
2023/06/21 10:45:31;;;;;;;1.53;1.00;;;;;;;26.59;100.00;98435.75;15271102;19;20479;-43
2023/06/21 10:50:57;;;;;;;2.05;1.10;;;;;;;26.70;100.00;98433.91;15274712;19;20078;-44
2023/06/21 10:56:22;;;;;;;2.50;1.20;;;;;;;26.68;100.00;98449.09;15269994;19;20031;-45
2023/06/21 11:01:50;;;;;;;1.58;0.93;;;;;;;26.71;100.00;98457.66;15269905;19;20018;-43
2023/06/21 11:07:14;;;;;;;2.47;1.00;;;;;;;26.75;100.00;98461.53;15261819;19;20053;-44
2023/06/21 11:12:39;;;;;;;1.20;1.00;;;;;;;26.61;100.00;98468.66;15272636;19;21167;-44
2023/06/21 11:18:09;;;;;;;3.85;0.90;;;;;;;26.57;100.00;98470.28;15271311;19;20374;-44
2023/06/21 11:23:49;;;;;;;1.60;1.03;;;;;;;26.29;100.00;98463.97;15271491;19;20041;-44
2023/06/21 11:29:22;;;;;;;1.40;1.00;;;;;;;26.04;100.00;98459.03;15268860;19;20018;-44
2023/06/21 11:34:57;;;;;;;3.35;1.10;;;;;;;26.04;100.00;98457.13;15264848;19;20021;-44
2023/06/21 11:40:23;;;;;;;5.20;1.40;;;;;;;26.13;100.00;98457.50;15257491;19;20020;-42
2023/06/21 11:46:00;;;;;;;1.92;1.10;;;;;;;26.30;100.00;98465.66;15271262;19;20014;-45
2023/06/21 11:51:27;;;;;;;1.98;1.20;;;;;;;26.46;100.00;98461.91;15276204;19;20031;-43
2023/06/21 11:56:53;;;;;;;1.73;1.10;;;;;;;26.68;100.00;98463.72;15268755;19;20011;-44
2023/06/21 12:02:22;;;;;;;3.40;1.20;;;;;;;26.79;100.00;98450.84;15271679;19;20018;-44
2023/06/21 12:07:50;;;;;;;2.78;1.10;;;;;;;26.80;100.00;98457.19;15273289;19;20074;-44
2023/06/21 12:13:16;;;;;;;2.45;1.23;;;;;;;26.94;100.00;98450.09;15261083;19;20018;-45
2023/06/21 12:18:41;;;;;;;2.25;1.15;;;;;;;27.06;100.00;98450.72;15270813;19;20035;-43
2023/06/21 12:24:09;;;;;;;2.92;1.25;;;;;;;27.18;100.00;98457.94;15271456;19;20021;-44
2023/06/21 12:29:34;;;;;;;1.70;1.15;;;;;;;27.00;100.00;98464.78;15272490;19;20366;-44
2023/06/21 12:34:58;;;;;;;2.28;1.30;;;;;;;27.04;100.00;98469.50;15270644;19;20987;-43
2023/06/21 12:40:26;;;;;;;1.58;1.15;;;;;;;27.13;100.00;98466.22;15268639;19;20345;-45
2023/06/21 12:45:53;;;;;;;1.10;1.00;;;;;;;26.97;100.00;98463.38;15257202;19;20015;-44
2023/06/21 12:51:23;;;;;;;2.10;1.10;;;;;;;26.94;100.00;98466.69;15266457;19;20018;-44
2023/06/21 12:56:58;;;;;;;1.20;1.10;;;;;;;27.07;100.00;98452.38;15262974;19;20026;-45
2023/06/21 13:02:26;;;;;;;3.58;1.02;;;;;;;27.07;100.00;98443.22;15265740;19;20283;-44
2023/06/21 13:07:53;;;;;;;1.92;1.00;;;;;;;27.35;100.00;98453.03;15268206;19;20014;-44
2023/06/21 13:13:21;;;;;;;1.55;1.00;;;;;;;27.47;100.00;98447.31;15266082;19;20017;-44
2023/06/21 13:18:47;;;;;;;2.00;1.13;;;;;;;27.48;100.00;98457.28;15260289;19;20010;-44
2023/06/21 13:24:12;;;;;;;1.98;1.00;;;;;;;27.26;100.00;98456.59;15267340;19;20024;-44
2023/06/21 13:29:39;;;;;;;5.50;1.10;;;;;;;27.18;100.00;98450.47;15266828;19;20017;-46
2023/06/21 13:35:11;;;;;;;1.25;1.10;;;;;;;27.02;100.00;98444.03;15260297;19;20094;-46
2023/06/21 13:40:42;;;;;;;2.83;1.10;;;;;;;26.94;100.00;98444.56;15259924;19;20806;-51
2023/06/21 13:46:09;;;;;;;2.17;1.20;;;;;;;26.81;100.00;98453.34;15254768;19;20505;-47
2023/06/21 13:51:34;;;;;;;1.45;1.20;;;;;;;26.82;100.00;98449.47;15258760;19;20026;-49
2023/06/21 13:57:01;;;;;;;1.17;0.90;;;;;;;26.88;100.00;98453.91;15259633;19;20459;-50
2023/06/21 14:02:28;;;;;;;1.50;1.00;;;;;;;27.03;100.00;98451.25;15262710;19;20015;-50
2023/06/21 14:07:53;;;;;;;2.63;1.08;;;;;;;27.26;100.00;98460.19;15259512;19;20018;-48
2023/06/21 14:13:19;;;;;;;1.75;1.20;;;;;;;27.60;100.00;98458.97;15266340;19;20404;-49
2023/06/21 14:18:47;;;;;;;1.52;1.10;;;;;;;27.52;100.00;98461.13;15253264;19;20028;-52
2023/06/21 14:24:13;;;;;;;1.58;1.10;;;;;;;27.34;100.00;98470.72;15259800;19;20018;-47
2023/06/21 14:29:43;;;;;;;2.75;1.10;;;;;;;27.12;100.00;98459.00;15261744;19;20366;-48
2023/06/21 14:35:11;;;;;;;1.57;1.07;;;;;;;27.11;100.00;98458.19;15261397;19;20740;-47
2023/06/21 14:40:35;;;;;;;1.10;1.00;;;;;;;27.07;100.00;98457.06;15209520;19;20929;-50
2023/06/21 14:46:00;;;;;;;2.75;1.20;;;;;;;27.14;100.00;98454.06;15258394;19;20038;-50
2023/06/21 14:51:27;;;;;;;1.35;1.20;;;;;;;27.04;100.00;98458.44;15254027;19;20022;-48
2023/06/21 14:56:53;;;;;;;1.30;1.20;;;;;;;27.07;100.00;98448.75;15251278;19;20007;-48
2023/06/21 15:02:19;;;;;;;2.60;1.10;;;;;;;26.90;100.00;98452.56;15261124;19;20017;-45
2023/06/21 15:07:46;;;;;;;1.33;1.00;;;;;;;27.00;100.00;98462.81;15269421;19;20019;-49
2023/06/21 15:13:10;;;;;;;1.25;1.10;;;;;;;27.13;100.00;98463.44;15276072;19;20017;-49
2023/06/21 15:18:35;;;;;;;1.45;1.10;;;;;;;27.15;100.00;98464.00;15268187;19;20010;-48
2023/06/21 15:24:05;;;;;;;1.92;0.98;;;;;;;27.38;100.00;98458.03;15263361;19;20031;-50
2023/06/21 15:29:30;;;;;;;2.80;1.08;;;;;;;27.35;100.00;98466.03;15272107;19;20716;-46
2023/06/21 15:34:54;;;;;;;1.23;1.10;;;;;;;27.29;100.00;98470.72;15270911;19;20026;-50
2023/06/21 15:40:22;;;;;;;2.10;1.10;;;;;;;27.66;100.00;98486.38;15271958;19;20014;-48
2023/06/21 15:45:46;;;;;;;1.85;1.05;;;;;;;27.98;100.00;98482.56;15271869;19;20036;-49
2023/06/21 15:51:11;;;;;;;0.95;0.90;;;;;;;28.17;100.00;98484.81;15269994;19;20359;-49
2023/06/21 15:56:38;;;;;;;2.03;0.98;;;;;;;28.32;95.46;98481.25;15261238;19;20014;-51
2023/06/21 16:02:04;;;;;;;2.58;1.10;;;;;;;28.28;100.00;98480.13;15271549;19;20082;-57
2023/06/21 16:07:29;;;;;;;2.38;1.10;;;;;;;28.25;97.45;98481.53;15268825;19;20459;-47
2023/06/21 16:12:57;;;;;;;1.77;1.10;;;;;;;28.22;100.00;98476.53;15272289;19;20468;-45
2023/06/21 16:18:22;;;;;;;1.70;1.08;;;;;;;28.08;100.00;98470.72;15266478;19;20370;-48
2023/06/21 16:23:47;;;;;;;1.13;1.10;;;;;;;28.11;100.00;98477.63;15270415;19;21528;-48
2023/06/21 16:29:14;;;;;;;1.98;1.20;;;;;;;28.16;96.08;98474.88;15258914;19;20417;-46
2023/06/21 16:34:45;;;;;;;2.90;1.10;;;;;;;28.35;100.00;98480.69;15271453;19;20029;-46
2023/06/21 16:40:11;;;;;;;1.15;1.00;;;;;;;28.36;100.00;98481.53;15270683;19;20018;-44
2023/06/21 16:45:39;;;;;;;1.50;1.10;;;;;;;28.53;100.00;98487.59;15268236;19;20014;-48
2023/06/21 16:51:03;;;;;;;1.60;1.10;;;;;;;28.79;98.82;98486.78;15268828;19;20025;-47
2023/06/21 16:56:28;;;;;;;1.27;1.00;;;;;;;29.05;100.00;98499.47;15266424;19;20003;-47
2023/06/21 17:01:56;;;;;;;3.55;1.00;;;;;;;29.27;87.97;98500.25;15257489;19;20025;-51
2023/06/21 17:07:21;;;;;;;2.20;1.23;;;;;;;29.49;92.82;98503.50;15265883;19;20037;-47
2023/06/21 17:12:46;;;;;;;1.30;1.00;;;;;;;29.80;85.76;98513.66;15268032;19;20018;-46
2023/06/21 17:18:14;;;;;;;1.77;1.00;;;;;;;30.04;88.96;98521.31;15263766;19;20025;-51
2023/06/21 17:23:39;;;;;;;1.42;1.00;;;;;;;30.01;85.37;98519.94;15267988;19;20021;-44
2023/06/21 17:29:04;;;;;;;1.10;1.00;;;;;;;30.23;87.63;98516.72;15267596;19;20025;-49
2023/06/21 17:34:31;;;;;;;1.10;1.00;;;;;;;30.01;79.93;98538.53;15252583;19;20082;-48
2023/06/21 17:39:56;;;;;;;2.47;1.05;;;;;;;29.86;82.81;98545.00;15263945;19;20023;-44
2023/06/21 17:45:22;;;;;;;1.42;0.95;;;;;;;30.01;81.42;98542.16;15266885;19;20021;-46
2023/06/21 17:50:50;;;;;;;1.00;0.95;;;;;;;30.22;80.03;98536.47;15264863;19;20042;-49
2023/06/21 17:56:14;;;;;;;1.38;1.17;;;;;;;30.32;74.67;98547.50;15262072;19;20020;-45
2023/06/21 18:01:39;;;;;;;1.88;1.02;;;;;;;30.42;78.47;98541.06;15263178;19;20018;-47
2023/06/21 18:07:07;;;;;;;1.27;1.17;;;;;;;30.42;73.99;98539.09;15249761;19;20029;-45
2023/06/21 18:12:31;;;;;;;1.10;1.00;;;;;;;30.38;76.41;98543.59;15265569;19;20608;-46
2023/06/21 18:17:56;;;;;;;1.35;0.90;;;;;;;30.10;75.82;98534.06;15260597;19;20025;-48
2023/06/21 18:23:24;;;;;;;1.25;1.10;;;;;;;30.01;74.83;98519.94;15261846;19;20025;-46
2023/06/21 18:28:49;;;;;;;1.27;1.10;;;;;;;29.98;75.30;98520.50;15255595;19;20031;-49
2023/06/21 18:34:13;;;;;;;1.05;1.05;;;;;;;29.81;80.78;98521.69;15254777;19;20057;-51
2023/06/21 18:39:49;;;;;;;1.55;1.10;;;;;;;29.67;84.24;98515.94;15253717;19;20013;-47
2023/06/21 18:45:14;;;;;;;1.05;0.90;;;;;;;29.35;88.61;98519.09;15273275;19;20347;-50
2023/06/21 18:50:38;;;;;;;1.83;1.20;;;;;;;28.96;94.05;98512.25;15276206;19;20782;-47
2023/06/21 18:56:05;;;;;;;1.70;1.30;;;;;;;28.66;99.93;98519.47;15271302;19;20019;-44
2023/06/21 19:01:32;;;;;;;1.35;1.23;;;;;;;28.35;100.00;98518.66;15274437;19;20022;-46
2023/06/21 19:06:57;;;;;;;1.58;1.20;;;;;;;28.06;100.00;98505.28;15269901;19;20025;-49
2023/06/21 19:12:25;;;;;;;1.60;1.17;;;;;;;27.75;100.00;98496.91;15266042;19;20074;-47
2023/06/21 19:17:50;;;;;;;1.60;1.10;;;;;;;27.44;100.00;98505.09;15268854;19;20674;-46
2023/06/21 19:23:14;;;;;;;2.05;1.40;;;;;;;27.18;100.00;98516.84;15272378;19;20014;-49
2023/06/21 19:28:42;;;;;;;1.30;1.20;;;;;;;26.97;100.00;98545.47;15266213;19;20014;-49
2023/06/21 19:34:10;;;;;;;1.40;1.30;;;;;;;26.79;100.00;98566.06;15272580;19;20017;-52
2023/06/21 19:39:43;;;;;;;2.75;1.48;;;;;;;26.57;100.00;98558.69;15263689;19;20440;-44
2023/06/21 19:45:12;;;;;;;1.80;1.40;;;;;;;26.23;100.00;98569.97;15261781;19;20014;-43
2023/06/21 19:50:36;;;;;;;2.00;1.63;;;;;;;25.92;100.00;98578.72;15273559;19;20014;-42
2023/06/21 19:56:01;;;;;;;1.88;1.60;;;;;;;25.74;100.00;98579.06;15280267;19;19999;-42
2023/06/21 20:01:28;;;;;;;2.90;1.40;;;;;;;25.61;100.00;98586.63;15276498;19;20022;-42
2023/06/21 20:06:54;;;;;;;3.03;1.52;;;;;;;25.48;100.00;98587.84;15282011;19;20021;-42
2023/06/21 20:12:20;;;;;;;2.28;1.58;;;;;;;25.37;100.00;98581.34;15284155;19;20014;-43
2023/06/21 20:17:48;;;;;;;3.70;1.50;;;;;;;25.19;100.00;98585.22;15274700;19;20469;-42
2023/06/21 20:23:14;;;;;;;3.67;1.70;;;;;;;24.98;100.00;98588.75;15273894;19;20038;-43
2023/06/21 20:28:39;;;;;;;1.95;1.60;;;;;;;24.53;100.00;98582.19;15277163;19;20077;-42
2023/06/21 20:34:06;;;;;;;2.17;1.65;;;;;;;24.34;100.00;98574.16;15272908;19;20815;-43
2023/06/21 20:39:31;;;;;;;3.45;1.75;;;;;;;24.27;100.00;98590.84;15268429;19;20078;-42
2023/06/21 20:44:56;;;;;;;2.47;1.50;;;;;;;24.20;100.00;98595.66;15266185;19;20096;-42
2023/06/21 20:50:24;;;;;;;1.80;1.50;;;;;;;24.17;100.00;98604.38;15258595;19;20014;-42
2023/06/21 20:55:49;;;;;;;1.40;1.30;;;;;;;24.12;100.00;98594.13;15268148;19;20014;-44
2023/06/21 21:01:16;;;;;;;1.70;1.60;;;;;;;23.98;100.00;98603.78;15265573;19;20010;-43
2023/06/21 21:06:43;;;;;;;1.70;1.60;;;;;;;23.22;100.00;98640.34;15267016;19;20013;-41
2023/06/21 21:12:10;;;;;;;3.85;1.83;;;;;;;22.84;100.00;98638.81;15264844;19;20014;-41
2023/06/21 21:17:36;;;;;;;1.70;1.60;;;;;;;22.66;100.00;98643.31;15265367;19;20014;-41
2023/06/21 21:23:03;;;;;;;2.83;1.70;;;;;;;22.62;100.00;98645.69;15253766;19;20609;-41
2023/06/21 21:28:28;;;;;;;2.03;1.80;;;;;;;22.44;100.00;98654.00;15267649;19;20018;-41
2023/06/21 21:33:54;;;;;;;3.92;2.20;;;;;;;22.40;100.00;98661.00;15263574;19;20673;-41
2023/06/21 21:39:21;;;;;;;2.92;1.80;;;;;;;22.30;100.00;98658.78;15266453;19;20018;-40
2023/06/21 21:44:52;;;;;;;2.97;1.88;;;;;;;22.26;100.00;98655.69;15264355;19;20684;-40
2023/06/21 21:50:18;;;;;;;1.92;1.73;;;;;;;22.19;100.00;98654.09;15262995;19;20023;-41
2023/06/21 21:55:47;;;;;;;2.03;1.90;;;;;;;22.14;100.00;98650.16;15260095;19;20010;-42
2023/06/21 22:01:12;;;;;;;2.78;2.00;;;;;;;22.05;100.00;98648.78;15264681;19;20441;-43
2023/06/21 22:06:36;;;;;;;2.08;1.83;;;;;;;21.94;100.00;98664.13;15266199;19;20018;-42
2023/06/21 22:12:03;;;;;;;1.98;1.88;;;;;;;21.88;100.00;98670.50;15261600;19;21085;-42
2023/06/21 22:17:29;;;;;;;2.58;1.88;;;;;;;21.77;100.00;98676.75;15266384;19;20375;-42
2023/06/21 22:22:55;;;;;;;2.08;1.83;;;;;;;21.72;100.00;98666.47;15259041;19;20018;-43
2023/06/21 22:28:22;;;;;;;2.10;1.90;;;;;;;21.66;100.00;98668.22;15265060;19;20018;-44
2023/06/21 22:33:48;;;;;;;2.10;1.90;;;;;;;21.65;100.00;98661.06;15262900;19;20073;-42
2023/06/21 22:39:12;;;;;;;2.38;2.17;;;;;;;21.60;100.00;98673.78;15265992;19;20015;-43
2023/06/21 22:44:46;;;;;;;1.92;1.83;;;;;;;21.50;100.00;98669.63;15261238;19;20110;-44
2023/06/21 22:50:11;;;;;;;3.33;2.03;;;;;;;21.32;100.00;98673.19;15262713;19;20094;-42
2023/06/21 22:55:37;;;;;;;2.30;2.10;;;;;;;21.18;100.00;98671.59;15253135;19;20767;-42
2023/06/21 23:01:05;;;;;;;3.53;1.92;;;;;;;21.16;100.00;98674.59;15262533;19;20029;-43
2023/06/21 23:06:31;;;;;;;2.58;2.05;;;;;;;21.12;100.00;98659.66;15262619;19;20543;-44
2023/06/21 23:11:56;;;;;;;2.30;2.10;;;;;;;21.07;100.00;98664.97;15260946;19;20014;-47
2023/06/21 23:17:24;;;;;;;2.47;2.17;;;;;;;21.00;100.00;98664.19;15262834;19;20020;-42
2023/06/21 23:22:53;;;;;;;2.80;2.20;;;;;;;20.97;100.00;98670.13;15262292;19;20014;-43
2023/06/21 23:28:19;;;;;;;3.05;2.20;;;;;;;20.90;100.00;98676.47;15265271;19;20010;-46
2023/06/21 23:33:47;;;;;;;2.60;2.20;;;;;;;20.85;100.00;98678.22;15270444;19;20015;-42
2023/06/21 23:39:11;;;;;;;4.32;2.40;;;;;;;20.81;100.00;98682.47;15275831;19;20112;-43
2023/06/21 23:44:42;;;;;;;2.58;2.25;;;;;;;20.77;100.00;98673.84;15270619;19;20024;-45
2023/06/21 23:50:10;;;;;;;;;;;;;;;20.70;100.00;98664.81;15276671;19;20045;-43
2023/06/21 23:55:38;;;;;;;2.60;2.40;;;;;;;20.60;100.00;98654.34;15277791;19;20714;-46
